createdAt,value
2023-04-09T00:01:29.980Z,95297.63
2023-04-09T00:04:01.106Z,95299.84
2023-04-09T00:06:29.327Z,95284.53
2023-04-09T00:08:57.655Z,95295.75
2023-04-09T00:11:26.165Z,95291.94
2023-04-09T00:13:54.119Z,95300.25
2023-04-09T00:16:22.208Z,95303.09
2023-04-09T00:18:52.289Z,95309.00
2023-04-09T00:21:20.871Z,95309.81
2023-04-09T00:23:48.995Z,95307.88
2023-04-09T00:26:17.197Z,95307.13
2023-04-09T00:28:45.224Z,95305.59
2023-04-09T00:31:13.661Z,95319.41
2023-04-09T00:33:42.349Z,95308.63
2023-04-09T00:36:12.126Z,95301.41
2023-04-09T00:38:40.937Z,95313.19
2023-04-09T00:41:09.407Z,95313.78
2023-04-09T00:43:37.461Z,95313.34
2023-04-09T00:46:06.073Z,95310.81
2023-04-09T00:48:34.422Z,95309.41
2023-04-09T00:51:02.564Z,95304.09
2023-04-09T00:53:32.108Z,95264.88
2023-04-09T00:56:00.404Z,95294.72
2023-04-09T00:58:28.624Z,95308.13
2023-04-09T01:00:56.835Z,95312.00
2023-04-09T01:03:25.541Z,95296.69
2023-04-09T01:06:04.388Z,95304.09
2023-04-09T01:08:42.914Z,95308.78
2023-04-09T01:11:22.074Z,95308.63
2023-04-09T01:14:00.143Z,95307.41
2023-04-09T01:16:31.090Z,95309.63
2023-04-09T01:19:04.405Z,95314.47
2023-04-09T01:21:35.341Z,95317.59
2023-04-09T01:24:21.436Z,95319.59
2023-04-09T01:26:58.426Z,95319.09
2023-04-09T01:29:32.715Z,95308.84
2023-04-09T01:32:03.662Z,95308.16
2023-04-09T01:34:33.824Z,95316.06
2023-04-09T01:37:04.859Z,95313.03
2023-04-09T01:39:34.839Z,95323.66
2023-04-09T01:42:04.058Z,95320.28
2023-04-09T01:44:34.397Z,95313.72
2023-04-09T01:47:03.232Z,95307.34
2023-04-09T01:49:32.355Z,95321.22
2023-04-09T01:52:01.929Z,95317.59
2023-04-09T01:54:31.349Z,95309.97
2023-04-09T01:56:59.626Z,95313.09
2023-04-09T01:59:27.770Z,95314.22
2023-04-09T02:02:02.689Z,95319.03
2023-04-09T02:04:35.796Z,95321.34
2023-04-09T02:07:08.419Z,95312.19
2023-04-09T02:09:40.645Z,95314.69
2023-04-09T02:12:13.946Z,95316.22
2023-04-09T02:14:42.930Z,95323.91
2023-04-09T02:17:13.273Z,95283.47
2023-04-09T02:19:42.112Z,95308.63
2023-04-09T02:22:10.999Z,95314.75
2023-04-09T02:24:39.967Z,95305.22
2023-04-09T02:27:08.471Z,95311.88
2023-04-09T02:29:38.060Z,95305.13
2023-04-09T02:32:07.390Z,95308.16
2023-04-09T02:34:39.215Z,95319.03
2023-04-09T02:37:07.536Z,95302.97
2023-04-09T02:39:35.404Z,95322.59
2023-04-09T02:42:03.698Z,95314.72
2023-04-09T02:44:32.039Z,95312.34
2023-04-09T02:47:00.408Z,95308.97
2023-04-09T02:49:28.708Z,95315.53
2023-04-09T02:51:58.243Z,95303.53
2023-04-09T02:54:26.464Z,95312.56
2023-04-09T02:56:54.562Z,95300.69
2023-04-09T02:59:22.871Z,95307.88
2023-04-09T03:01:50.889Z,95297.41
2023-04-09T03:04:19.250Z,95291.47
2023-04-09T03:06:47.632Z,95294.22
2023-04-09T03:09:17.261Z,95306.69
2023-04-09T03:11:45.403Z,95285.75
2023-04-09T03:14:13.476Z,95310.47
2023-04-09T03:16:41.469Z,95303.66
2023-04-09T03:19:09.762Z,95314.34
2023-04-09T03:21:39.461Z,95319.28
2023-04-09T03:24:07.706Z,95317.34
2023-04-09T03:26:38.751Z,95310.69
2023-04-09T03:29:07.723Z,95309.28
2023-04-09T03:31:35.956Z,95316.66
2023-04-09T03:34:04.238Z,95321.22
2023-04-09T03:36:32.994Z,95321.78
2023-04-09T03:39:01.878Z,95313.72
2023-04-09T03:41:30.289Z,95315.44
2023-04-09T03:43:59.690Z,95330.25
2023-04-09T03:46:27.959Z,95321.19
2023-04-09T03:48:56.458Z,95315.13
2023-04-09T03:51:24.635Z,95317.66
2023-04-09T03:53:52.717Z,95320.97
2023-04-09T03:56:20.985Z,95320.41
2023-04-09T03:58:50.209Z,95325.41
2023-04-09T04:01:19.946Z,95340.69
2023-04-09T04:03:50.204Z,95322.41
2023-04-09T04:06:18.309Z,95317.59
2023-04-09T04:08:46.629Z,95339.84
2023-04-09T04:11:14.980Z,95330.34
2023-04-09T04:13:43.250Z,95333.34
2023-04-09T04:16:11.943Z,95326.88
2023-04-09T04:18:41.436Z,95318.25
2023-04-09T04:21:14.783Z,95278.91
2023-04-09T04:23:43.146Z,95328.81
2023-04-09T04:26:11.612Z,95318.97
2023-04-09T04:28:41.446Z,95333.75
2023-04-09T04:31:11.086Z,95324.94
2023-04-09T04:33:43.569Z,95330.69
2023-04-09T04:36:13.692Z,95315.72
2023-04-09T04:38:42.491Z,95335.75
2023-04-09T04:41:11.898Z,95324.94
2023-04-09T04:43:41.742Z,95324.63
2023-04-09T04:46:10.022Z,95328.03
2023-04-09T04:48:40.283Z,95327.59
2023-04-09T04:51:10.927Z,95325.56
2023-04-09T04:53:39.331Z,95330.53
2023-04-09T04:56:07.905Z,95336.25
2023-04-09T04:58:36.039Z,95334.75
2023-04-09T05:01:04.091Z,95339.53
2023-04-09T05:03:31.996Z,95342.16
2023-04-09T05:06:00.677Z,95316.50
2023-04-09T05:08:30.660Z,95331.56
2023-04-09T05:10:58.590Z,95338.81
2023-04-09T05:13:26.889Z,95330.41
2023-04-09T05:15:55.285Z,95329.41
2023-04-09T05:18:23.419Z,95336.94
2023-04-09T05:20:51.421Z,95336.38
2023-04-09T05:23:19.381Z,95343.28
2023-04-09T05:25:49.790Z,95343.38
2023-04-09T05:28:18.116Z,95338.66
2023-04-09T05:30:49.236Z,95335.78
2023-04-09T05:33:18.142Z,95335.78
2023-04-09T05:35:46.144Z,95346.38
2023-04-09T05:38:14.749Z,95336.44
2023-04-09T05:40:45.220Z,95323.19
2023-04-09T05:43:14.600Z,95339.66
2023-04-09T05:45:42.770Z,95331.50
2023-04-09T05:48:10.917Z,95335.38
2023-04-09T05:50:51.451Z,95280.25
2023-04-09T05:53:22.412Z,95338.16
2023-04-09T05:55:50.856Z,95317.63
2023-04-09T05:58:21.732Z,95336.38
2023-04-09T06:00:51.852Z,95326.84
2023-04-09T06:03:20.896Z,95335.84
2023-04-09T06:05:49.419Z,95335.56
2023-04-09T06:08:17.473Z,95337.34
2023-04-09T06:10:45.492Z,95330.84
2023-04-09T06:13:13.321Z,95327.59
2023-04-09T06:15:42.830Z,95339.94
2023-04-09T06:18:12.445Z,95332.50
2023-04-09T06:20:40.569Z,95336.50
2023-04-09T06:23:08.747Z,95320.22
2023-04-09T06:25:37.045Z,95333.03
2023-04-09T06:28:05.566Z,95331.03
2023-04-09T06:30:33.668Z,95339.44
2023-04-09T06:33:03.991Z,95338.44
2023-04-09T06:35:32.694Z,95288.44
2023-04-09T06:38:01.046Z,95332.88
2023-04-09T06:40:29.114Z,95339.94
2023-04-09T06:42:57.405Z,95345.59
2023-04-09T06:45:26.195Z,95354.69
2023-04-09T06:47:54.390Z,95344.56
2023-04-09T06:50:23.806Z,95345.22
2023-04-09T06:52:52.563Z,95343.00
2023-04-09T06:55:20.670Z,95347.47
2023-04-09T06:57:48.762Z,95342.72
2023-04-09T07:00:17.011Z,95352.06
2023-04-09T07:02:45.888Z,95350.34
2023-04-09T07:05:14.157Z,95350.06
2023-04-09T07:07:43.540Z,95339.25
2023-04-09T07:10:21.263Z,95348.13
2023-04-09T07:12:49.255Z,95352.16
2023-04-09T07:15:17.515Z,95348.56
2023-04-09T07:17:45.735Z,95359.47
2023-04-09T07:20:14.046Z,95205.66
2023-04-09T07:22:43.739Z,95347.91
2023-04-09T07:25:14.741Z,95345.50
2023-04-09T07:27:43.495Z,95350.59
2023-04-09T07:30:12.194Z,95362.69
2023-04-09T07:32:40.338Z,95359.25
2023-04-09T07:35:11.837Z,95355.91
2023-04-09T07:37:39.966Z,95356.13
2023-04-09T07:40:11.084Z,95361.72
2023-04-09T07:42:39.728Z,95362.63
2023-04-09T07:45:09.814Z,95357.88
2023-04-09T07:47:38.333Z,95365.31
2023-04-09T07:50:07.569Z,95335.69
2023-04-09T07:52:35.675Z,95368.22
2023-04-09T07:55:04.755Z,95365.47
2023-04-09T07:57:35.210Z,95377.06
2023-04-09T08:00:04.265Z,95358.59
2023-04-09T08:02:32.506Z,95376.59
2023-04-09T08:05:00.805Z,95383.69
2023-04-09T08:07:28.861Z,95381.53
2023-04-09T08:09:56.825Z,95387.66
2023-04-09T08:12:24.819Z,95386.63
2023-04-09T08:14:54.421Z,95381.38
2023-04-09T08:17:22.452Z,95389.81
2023-04-09T08:19:50.844Z,95401.28
2023-04-09T08:22:18.996Z,95392.84
2023-04-09T08:24:52.471Z,95386.69
2023-04-09T08:27:26.590Z,95390.28
2023-04-09T08:29:55.825Z,95389.63
2023-04-09T08:32:23.929Z,95380.97
2023-04-09T08:34:52.444Z,95399.44
2023-04-09T08:37:22.725Z,95392.00
2023-04-09T08:39:50.984Z,95391.53
2023-04-09T08:42:20.994Z,95384.00
2023-04-09T08:44:49.270Z,95386.59
2023-04-09T08:47:20.229Z,95389.84
2023-04-09T08:49:50.429Z,95377.94
2023-04-09T08:52:22.091Z,95384.38
2023-04-09T08:54:52.434Z,95385.59
2023-04-09T08:57:20.643Z,95380.97
2023-04-09T08:59:48.711Z,95383.66
2023-04-09T09:02:18.495Z,95378.47
2023-04-09T09:04:48.029Z,95378.81
2023-04-09T09:07:16.566Z,95367.13
2023-04-09T09:09:55.513Z,95364.97
2023-04-09T09:12:35.330Z,95368.53
2023-04-09T09:15:04.025Z,95362.72
2023-04-09T09:17:34.243Z,95366.16
2023-04-09T09:20:21.075Z,95362.75
2023-04-09T09:22:54.568Z,95359.38
2023-04-09T09:25:26.243Z,95306.00
2023-04-09T09:27:55.668Z,95353.47
2023-04-09T09:30:27.995Z,95353.47
2023-04-09T09:33:07.814Z,95344.06
2023-04-09T09:35:51.400Z,95348.72
2023-04-09T09:38:20.085Z,95342.69
2023-04-09T09:40:48.926Z,95332.09
2023-04-09T09:43:17.294Z,95333.28
2023-04-09T09:45:47.790Z,95327.38
2023-04-09T09:48:21.303Z,95318.25
2023-04-09T09:50:50.740Z,95329.66
2023-04-09T09:53:24.008Z,95324.75
2023-04-09T09:55:55.530Z,95324.38
2023-04-09T09:58:28.268Z,95312.16
2023-04-09T10:00:57.804Z,95322.97
2023-04-09T10:03:30.978Z,95306.47
2023-04-09T10:06:00.384Z,95320.41
2023-04-09T10:08:30.934Z,95325.25
2023-04-09T10:10:59.377Z,95309.88
2023-04-09T10:13:32.713Z,95300.53
2023-04-09T10:16:01.792Z,95285.75
2023-04-09T10:18:35.694Z,95296.00
2023-04-09T10:21:11.683Z,95293.91
2023-04-09T10:23:41.344Z,95283.97
2023-04-09T10:26:11.365Z,95283.53
2023-04-09T10:28:39.405Z,95295.09
2023-04-09T10:31:08.962Z,95292.22
2023-04-09T10:33:40.127Z,95299.63
2023-04-09T10:36:13.815Z,95284.31
2023-04-09T10:38:43.030Z,95285.59
2023-04-09T10:41:23.070Z,95246.47
2023-04-09T10:43:52.170Z,95238.66
2023-04-09T10:46:31.001Z,95223.19
2023-04-09T10:49:16.950Z,95282.06
2023-04-09T10:51:52.049Z,95273.25
2023-04-09T10:54:47.139Z,95267.13
2023-04-09T10:57:20.862Z,95270.09
2023-04-09T10:59:51.224Z,95273.19
2023-04-09T11:02:51.054Z,95268.66
2023-04-09T11:05:34.207Z,95263.13
2023-04-09T11:08:07.973Z,95264.09
2023-04-09T11:10:36.433Z,95259.22
2023-04-09T11:13:04.991Z,95265.69
2023-04-09T11:15:33.936Z,95257.34
2023-04-09T11:18:03.374Z,95254.94
2023-04-09T11:20:35.946Z,95261.88
2023-04-09T11:23:04.420Z,95246.59
2023-04-09T11:25:35.441Z,95249.94
2023-04-09T11:28:05.497Z,95249.00
2023-04-09T11:30:34.515Z,95251.78
2023-04-09T11:33:03.412Z,95207.16
2023-04-09T11:35:35.744Z,95220.84
2023-04-09T11:38:09.592Z,95236.84
2023-04-09T11:40:43.586Z,95166.09
2023-04-09T11:43:12.160Z,95240.09
2023-04-09T11:45:40.318Z,95224.19
2023-04-09T11:48:08.622Z,95238.88
2023-04-09T11:50:38.872Z,95224.69
2023-04-09T11:53:18.127Z,95224.44
2023-04-09T11:55:48.875Z,95220.16
2023-04-09T11:58:16.875Z,95219.91
2023-04-09T12:00:45.717Z,95203.06
2023-04-09T12:03:16.444Z,95221.41
2023-04-09T12:05:51.142Z,95206.63
2023-04-09T12:08:25.033Z,95216.88
2023-04-09T12:10:54.114Z,95207.13
2023-04-09T12:13:22.953Z,95217.50
2023-04-09T12:15:51.884Z,95212.97
2023-04-09T12:18:22.826Z,95211.63
2023-04-09T12:20:52.264Z,95205.66
2023-04-09T12:23:20.156Z,95205.81
2023-04-09T12:25:48.232Z,95212.97
2023-04-09T12:28:18.892Z,95211.66
2023-04-09T12:30:49.131Z,95206.69
2023-04-09T12:33:17.809Z,95198.91
2023-04-09T12:35:46.481Z,95205.56
2023-04-09T12:38:16.093Z,95209.22
2023-04-09T12:40:44.476Z,95198.50
2023-04-09T12:43:12.488Z,95192.69
2023-04-09T12:45:41.116Z,95188.75
2023-04-09T12:48:09.479Z,95182.72
2023-04-09T12:50:38.461Z,95153.63
2023-04-09T12:53:06.441Z,95199.94
2023-04-09T12:55:36.254Z,95191.38
2023-04-09T12:58:08.018Z,95178.22
2023-04-09T13:00:36.565Z,95191.75
2023-04-09T13:03:04.929Z,95159.19
2023-04-09T13:05:35.677Z,95186.03
2023-04-09T13:08:03.883Z,95189.69
2023-04-09T13:10:32.457Z,95182.63
2023-04-09T13:13:01.940Z,95189.47
2023-04-09T13:15:30.093Z,95194.94
2023-04-09T13:17:58.073Z,95157.41
2023-04-09T13:20:26.238Z,95189.47
2023-04-09T13:22:54.297Z,95182.53
2023-04-09T13:25:22.384Z,95177.09
2023-04-09T13:27:50.689Z,95173.06
2023-04-09T13:30:20.875Z,95174.88
2023-04-09T13:32:49.477Z,95182.09
2023-04-09T13:35:19.371Z,95175.16
2023-04-09T13:37:47.530Z,95181.69
2023-04-09T13:40:16.423Z,95164.19
2023-04-09T13:42:44.754Z,95172.28
2023-04-09T13:45:13.408Z,95162.41
2023-04-09T13:47:43.353Z,95169.19
2023-04-09T13:50:13.176Z,95171.56
2023-04-09T13:52:41.137Z,95169.25
2023-04-09T13:55:10.666Z,95166.72
2023-04-09T13:57:39.057Z,95163.09
2023-04-09T14:00:08.573Z,95161.16
2023-04-09T14:02:36.646Z,95166.66
2023-04-09T14:05:08.565Z,95169.91
2023-04-09T14:07:36.754Z,95160.94
2023-04-09T14:10:04.938Z,95162.84
2023-04-09T14:12:32.877Z,95175.09
2023-04-09T14:15:01.023Z,95155.63
2023-04-09T14:17:28.940Z,95164.63
2023-04-09T14:19:58.024Z,95120.84
2023-04-09T14:22:28.608Z,95126.72
2023-04-09T14:24:56.505Z,95161.78
2023-04-09T14:27:24.531Z,95158.56
2023-04-09T14:29:53.138Z,95154.97
2023-04-09T14:32:21.974Z,95161.56
2023-04-09T14:34:49.933Z,95133.44
2023-04-09T14:37:17.862Z,95159.78
2023-04-09T14:39:47.642Z,95160.97
2023-04-09T14:42:15.546Z,95163.44
2023-04-09T14:44:43.530Z,95158.56
2023-04-09T14:47:11.611Z,95157.34
2023-04-09T14:49:39.771Z,95163.84
2023-04-09T14:52:07.983Z,95164.69
2023-04-09T14:54:37.954Z,95175.84
2023-04-09T14:57:07.476Z,95162.63
2023-04-09T14:59:37.475Z,95134.97
2023-04-09T15:02:06.413Z,95164.47
2023-04-09T15:04:34.498Z,95161.19
2023-04-09T15:07:02.448Z,95154.81
2023-04-09T15:09:30.963Z,95156.53
2023-04-09T15:11:58.871Z,95154.13
2023-04-09T15:14:33.671Z,95157.19
2023-04-09T15:17:01.828Z,95158.50
2023-04-09T15:19:29.815Z,95157.00
2023-04-09T15:21:57.831Z,95150.47
2023-04-09T15:24:25.950Z,95149.66
2023-04-09T15:26:54.013Z,95154.78
2023-04-09T15:29:22.134Z,95154.97
2023-04-09T15:31:53.941Z,95161.06
2023-04-09T15:34:22.351Z,95162.22
2023-04-09T15:36:50.436Z,95153.44
2023-04-09T15:39:18.420Z,95156.81
2023-04-09T15:41:48.008Z,95158.88
2023-04-09T15:44:15.939Z,95159.13
2023-04-09T15:46:44.012Z,95156.06
2023-04-09T15:49:13.944Z,95158.44
2023-04-09T15:51:42.071Z,95154.22
2023-04-09T15:54:10.192Z,95160.22
2023-04-09T15:56:40.504Z,95161.38
2023-04-09T15:59:08.562Z,95152.78
2023-04-09T16:01:37.900Z,95151.41
2023-04-09T16:04:06.289Z,95146.56
2023-04-09T16:06:35.693Z,95145.50
2023-04-09T16:09:04.174Z,95132.69
2023-04-09T16:11:32.786Z,95159.91
2023-04-09T16:14:01.140Z,95140.84
2023-04-09T16:16:29.199Z,95148.78
2023-04-09T16:18:57.765Z,95147.56
2023-04-09T16:21:25.957Z,95155.53
2023-04-09T16:23:56.200Z,95155.22
2023-04-09T16:26:24.591Z,95137.88
2023-04-09T16:28:52.853Z,95147.56
2023-04-09T16:31:21.635Z,95151.31
2023-04-09T16:33:49.714Z,95138.25
2023-04-09T16:36:17.768Z,95079.25
2023-04-09T16:38:45.768Z,95148.91
2023-04-09T16:41:15.226Z,95140.81
2023-04-09T16:43:43.235Z,95140.19
2023-04-09T16:46:11.363Z,95135.09
2023-04-09T16:48:41.932Z,95141.97
2023-04-09T16:51:10.475Z,95155.75
2023-04-09T16:53:38.984Z,95115.78
2023-04-09T16:56:08.047Z,95148.47
2023-04-09T16:58:37.989Z,95156.91
2023-04-09T17:01:06.495Z,95152.38
2023-04-09T17:03:35.419Z,95147.72
2023-04-09T17:06:05.003Z,95163.53
2023-04-09T17:08:33.639Z,95156.38
2023-04-09T17:11:03.221Z,95156.38
2023-04-09T17:13:31.686Z,95163.28
2023-04-09T17:16:02.592Z,95171.56
2023-04-09T17:18:30.716Z,95140.53
2023-04-09T17:20:59.427Z,95162.25
2023-04-09T17:23:29.210Z,95169.75
2023-04-09T17:25:57.206Z,95175.94
2023-04-09T17:28:28.722Z,95176.47
2023-04-09T17:30:57.005Z,95177.66
2023-04-09T17:33:28.063Z,95184.56
2023-04-09T17:35:57.767Z,95175.22
2023-04-09T17:38:27.143Z,95184.56
2023-04-09T17:40:55.515Z,95182.34
2023-04-09T17:43:23.960Z,95191.22
2023-04-09T17:45:52.395Z,95179.88
2023-04-09T17:48:20.787Z,95189.84
2023-04-09T17:50:50.208Z,95193.72
2023-04-09T17:53:18.075Z,95186.56
2023-04-09T17:55:50.960Z,95200.41
2023-04-09T17:58:19.093Z,95194.38
2023-04-09T18:00:47.208Z,95185.13
2023-04-09T18:03:16.009Z,95175.94
2023-04-09T18:05:44.415Z,95217.22
2023-04-09T18:08:14.043Z,95212.50
2023-04-09T18:10:43.714Z,95207.56
2023-04-09T18:13:11.996Z,95215.88
2023-04-09T18:15:40.390Z,95217.41
2023-04-09T18:18:09.131Z,95221.19
2023-04-09T18:20:37.069Z,95216.31
2023-04-09T18:23:05.054Z,95215.19
2023-04-09T18:25:34.940Z,95225.56
2023-04-09T18:28:02.995Z,95225.50
2023-04-09T18:30:31.339Z,95226.13
2023-04-09T18:32:59.991Z,95238.78
2023-04-09T18:35:28.915Z,95241.16
2023-04-09T18:37:57.258Z,95232.75
2023-04-09T18:40:25.325Z,95237.38
2023-04-09T18:42:55.312Z,95245.91
2023-04-09T18:45:23.561Z,95248.50
2023-04-09T18:47:52.488Z,95236.63
2023-04-09T18:50:20.911Z,95248.19
2023-04-09T18:52:48.877Z,95240.16
2023-04-09T18:55:18.373Z,95245.06
2023-04-09T18:57:47.461Z,95246.34
2023-04-09T19:00:17.105Z,95224.44
2023-04-09T19:02:45.597Z,95243.78
2023-04-09T19:05:14.255Z,95250.03
2023-04-09T19:07:42.288Z,95239.56
2023-04-09T19:10:11.744Z,95243.69
2023-04-09T19:12:47.686Z,95237.94
2023-04-09T19:15:17.646Z,95246.38
2023-04-09T19:17:45.656Z,95248.50
2023-04-09T19:20:13.787Z,95249.41
2023-04-09T19:22:42.035Z,95249.28
2023-04-09T19:25:11.025Z,95240.75
2023-04-09T19:27:39.943Z,95243.78
2023-04-09T19:30:09.546Z,95205.25
2023-04-09T19:32:39.785Z,95243.34
2023-04-09T19:35:09.413Z,95236.66
2023-04-09T19:37:37.777Z,95241.97
2023-04-09T19:40:07.172Z,95248.22
2023-04-09T19:42:37.782Z,95247.59
2023-04-09T19:45:07.158Z,95244.75
2023-04-09T19:47:35.569Z,95245.19
2023-04-09T19:50:05.500Z,95247.06
2023-04-09T19:52:33.406Z,95253.31
2023-04-09T19:55:02.095Z,95245.66
2023-04-09T19:57:31.997Z,95198.94
2023-04-09T20:00:00.139Z,95227.75
2023-04-09T20:02:29.890Z,95235.41
2023-04-09T20:04:58.332Z,95242.66
2023-04-09T20:07:28.427Z,95234.78
2023-04-09T20:09:56.346Z,95244.50
2023-04-09T20:12:28.455Z,95229.38
2023-04-09T20:14:56.833Z,95237.34
2023-04-09T20:17:24.864Z,95141.66
2023-04-09T20:19:55.518Z,95235.84
2023-04-09T20:22:24.076Z,95235.50
2023-04-09T20:24:55.590Z,95222.56
2023-04-09T20:27:24.017Z,95232.28
2023-04-09T20:29:52.942Z,95236.91
2023-04-09T20:32:21.405Z,95229.03
2023-04-09T20:34:50.125Z,95229.38
2023-04-09T20:37:18.058Z,95230.31
2023-04-09T20:39:46.047Z,95229.56
2023-04-09T20:42:15.659Z,95211.66
2023-04-09T20:44:45.029Z,95232.38
2023-04-09T20:47:13.203Z,95220.72
2023-04-09T20:49:42.729Z,95225.56
2023-04-09T20:52:12.117Z,95229.78
2023-04-09T20:54:40.493Z,95240.78
2023-04-09T20:57:08.674Z,95222.00
2023-04-09T20:59:38.492Z,95227.41
2023-04-09T21:02:08.966Z,95238.97
2023-04-09T21:04:37.079Z,95231.66
2023-04-09T21:07:04.997Z,95242.09
2023-04-09T21:09:34.166Z,95234.34
2023-04-09T21:12:03.215Z,95235.28
2023-04-09T21:14:31.622Z,95232.16
2023-04-09T21:17:01.148Z,95235.84
2023-04-09T21:19:29.195Z,95237.03
2023-04-09T21:21:57.797Z,95239.81
2023-04-09T21:24:26.936Z,95242.38
2023-04-09T21:26:55.141Z,95229.22
2023-04-09T21:29:23.412Z,95221.31
2023-04-09T21:31:51.975Z,95236.72
2023-04-09T21:34:22.926Z,95210.16
2023-04-09T21:36:51.446Z,95227.75
2023-04-09T21:39:20.234Z,95235.53
2023-04-09T21:41:49.983Z,95226.50
2023-04-09T21:44:18.509Z,95233.19
2023-04-09T21:46:47.639Z,95218.91
2023-04-09T21:49:16.108Z,95227.00
2023-04-09T21:51:47.900Z,95233.03
2023-04-09T21:54:15.887Z,95233.88
2023-04-09T21:56:44.042Z,95234.06
2023-04-09T21:59:12.060Z,95240.31
2023-04-09T22:01:41.658Z,95238.16
2023-04-09T22:04:09.825Z,95221.50
2023-04-09T22:06:40.296Z,95236.16
2023-04-09T22:09:10.101Z,95229.25
2023-04-09T22:11:41.312Z,95240.72
2023-04-09T22:14:09.340Z,95231.97
2023-04-09T22:16:37.513Z,95232.16
2023-04-09T22:19:05.859Z,95213.31
2023-04-09T22:21:33.916Z,95231.31
2023-04-09T22:24:03.218Z,95212.56
2023-04-09T22:26:32.891Z,95223.72
2023-04-09T22:29:01.123Z,95232.81
2023-04-09T22:31:29.213Z,95233.47
2023-04-09T22:34:00.121Z,95222.88
2023-04-09T22:36:31.195Z,95234.00
2023-04-09T22:38:59.262Z,95229.13
2023-04-09T22:41:27.764Z,95230.81
2023-04-09T22:43:57.791Z,95236.53
2023-04-09T22:46:25.922Z,95237.03
2023-04-09T22:48:54.005Z,95181.81
2023-04-09T22:51:22.175Z,95211.97
2023-04-09T22:53:50.434Z,95207.25
2023-04-09T22:56:19.646Z,95230.38
2023-04-09T22:58:47.765Z,95240.44
2023-04-09T23:01:22.231Z,95225.75
2023-04-09T23:03:51.065Z,95200.00
2023-04-09T23:06:19.898Z,95218.41
2023-04-09T23:08:48.126Z,95223.34
2023-04-09T23:11:16.563Z,95213.75
2023-04-09T23:13:44.456Z,95224.53
2023-04-09T23:16:12.618Z,95222.09
2023-04-09T23:18:41.977Z,95219.75
2023-04-09T23:21:11.349Z,95166.06
2023-04-09T23:23:40.461Z,95220.47
2023-04-09T23:26:08.849Z,95209.91
2023-04-09T23:28:37.336Z,95229.41
2023-04-09T23:31:05.704Z,95214.63
2023-04-09T23:33:34.761Z,95208.38
2023-04-09T23:36:04.644Z,95204.50
2023-04-09T23:38:34.185Z,95213.75
2023-04-09T23:41:02.426Z,95221.03
2023-04-09T23:43:30.350Z,95209.06
2023-04-09T23:45:58.901Z,95207.41
2023-04-09T23:48:27.709Z,95203.63
2023-04-09T23:50:55.689Z,95207.69
2023-04-09T23:53:25.012Z,95210.03
2023-04-09T23:55:53.151Z,95196.25
2023-04-09T23:58:21.511Z,95205.59
